ADDS METAR Data INFO
IDs: Format: Raw Decoded Include TAF

Data at: 2034 UTC 20 Jul 2018

KSDY 201956Z AUTO 07007KT 030V100 10SM CLR 28/12 A3002 RMK AO2 SLP160 T02830122
KSDY 201856Z AUTO 05008G14KT 10SM CLR 27/12 A3004 RMK AO2 SLP166 T02670117
KSDY 201756Z AUTO 09006KT 10SM CLR 26/12 A3005 RMK AO2 SLP170 T02560122 10256 20156 58000
KSDY 201656Z AUTO 07011G14KT 10SM CLR 24/15 A3005 RMK AO2 SLP168 T02440150
KSDY 201556Z AUTO 06008KT 9SM SCT023 22/16 A3006 RMK AO2 SLP173 T02220161
KSDY 201456Z AUTO 07006KT 10SM CLR 21/17 A3005 RMK AO2 SLP170 T02110167 50001
KSDY 201356Z AUTO 04005KT 10SM CLR 19/16 A3005 RMK AO2 SLP170 T01890161
KSDY 201256Z AUTO 03007KT 10SM CLR 17/16 A3005 RMK AO2 SLP170 T01720156
KSDY 201156Z AUTO 34004KT 10SM CLR 16/14 A3005 RMK AO2 SLP169 T01560144 10194 20150 53012
KSDY 201056Z AUTO 33006KT 10SM CLR 16/14 A3003 RMK AO2 SLP162 T01560144
KSDY 200956Z AUTO 35006KT 10SM CLR 16/14 A3002 RMK AO2 SLP158 T01560139
KSDY 200856Z AUTO 35005KT 10SM CLR 17/14 A3001 RMK AO2 SLP157 T01670144 53006
KSDY 200756Z AUTO 34005KT 10SM CLR 17/14 A3000 RMK AO2 SLP153 T01720144
KSDY 200656Z AUTO 35006KT 10SM CLR 18/14 A3000 RMK AO2 SLP150 T01780144
KSDY 200556Z AUTO 01005KT 10SM CLR 19/15 A3000 RMK AO2 SLP148 T01940150 10294 20189 403060178 51014
KSDY 200456Z AUTO 01006KT 10SM CLR 21/15 A2998 RMK AO2 SLP144 T02060150
KSDY 200356Z AUTO 01008KT 10SM CLR 22/14 A2997 RMK AO2 SLP139 T02220144
KSDY 200256Z AUTO 36007KT 10SM CLR 24/14 A2995 RMK AO2 SLP133 T02390139 53012
KSDY 200156Z AUTO 36009KT 10SM CLR 27/13 A2993 RMK AO2 SLP124 T02670128
KSDY 200056Z AUTO 36014KT 10SM CLR 28/13 A2992 RMK AO2 SLP122 T02830128
KSDY 192256Z AUTO 35014KT 10SM BKN065 30/14 A2991 RMK AO2 SLP120 T03000139
KSDY 192156Z AUTO 36013KT 10SM FEW065 30/14 A2991 RMK AO2 SLP116 T03000144
KSDY 192056Z AUTO 36016KT 10SM SCT055 BKN070 29/15 A2991 RMK AO2 SLP120 T02890150 51002
KSDY 191956Z AUTO 35013G19KT 10SM CLR 29/16 A2991 RMK AO2 SLP119 T02940156
KSDY 191856Z AUTO 34016G19KT 10SM FEW055 30/15 A2991 RMK AO2 SLP117 T03000150
KSDY 191756Z AUTO 32010KT 280V350 10SM CLR 29/14 A2990 RMK AO2 SLP116 T02890139 10289 20183 58001
KSDY 191656Z AUTO 29009KT 10SM CLR 28/12 A2991 RMK AO2 SLP118 T02830122
KSDY 191556Z AUTO 27011KT 10SM CLR 27/12 A2991 RMK AO2 SLP117 T02720122
KSDY 191456Z AUTO 32012KT 10SM CLR 26/13 A2991 RMK AO2 SLP118 T02560128 51013
KSDY 191356Z AUTO 34005KT 10SM BKN085 24/14 A2990 RMK AO2 SLP116 T02440139
KSDY 191256Z AUTO 29003KT 10SM FEW110 19/13 A2988 RMK AO2 SLP112 T01890133
KSDY 191156Z AUTO 29009KT 10SM CLR 18/13 A2987 RMK AO2 TSE01 SLP104 T01830133 10217 20178 51013
KSDY 191112Z AUTO 24005KT 10SM CLR 19/14 A2984 RMK AO2 LTG DSNT SE AND S TSE01
KSDY 191056Z AUTO 21007KT 10SM VCTS CLR 19/14 A2984 RMK AO2 LTG DSNT SE AND S SLP093 T01890139
KSDY 190956Z AUTO 01010KT 10SM VCTS OVC110 22/13 A2987 RMK AO2 PK WND 34026/0940 LTG DSNT W AND NW TSB55 SLP102 T02170133
KSDY 190856Z AUTO 05007KT 10SM SCT120 19/14 A2983 RMK AO2 LTG DSNT NW SLP090 T01890139 58018